sensor_id;sensor_type;location;lat;lon;timestamp;P1;durP1;ratioP1;P2;durP2;ratioP2
79414;SDS011;68864;44.972;19.612;2023-10-13T00:00:21;145.65;;;91.03;;
79414;SDS011;68864;44.972;19.612;2023-10-13T00:02:55;138.50;;;90.35;;
79414;SDS011;68864;44.972;19.612;2023-10-13T00:05:26;133.95;;;85.28;;
79414;SDS011;68864;44.972;19.612;2023-10-13T00:07:55;119.32;;;80.13;;
79414;SDS011;68864;44.972;19.612;2023-10-13T00:10:27;115.72;;;78.28;;
79414;SDS011;68864;44.972;19.612;2023-10-13T00:12:54;115.28;;;77.10;;
79414;SDS011;68864;44.972;19.612;2023-10-13T00:15:31;118.57;;;76.82;;
79414;SDS011;68864;44.972;19.612;2023-10-13T00:18:04;108.40;;;73.07;;
79414;SDS011;68864;44.972;19.612;2023-10-13T00:20:37;110.43;;;78.25;;
79414;SDS011;68864;44.972;19.612;2023-10-13T00:23:05;114.53;;;71.63;;
79414;SDS011;68864;44.972;19.612;2023-10-13T00:28:08;96.07;;;61.97;;
79414;SDS011;68864;44.972;19.612;2023-10-13T00:30:36;97.45;;;67.47;;
79414;SDS011;68864;44.972;19.612;2023-10-13T00:33:03;101.93;;;65.28;;
79414;SDS011;68864;44.972;19.612;2023-10-13T00:35:30;89.70;;;59.70;;
79414;SDS011;68864;44.972;19.612;2023-10-13T00:38:02;100.53;;;63.60;;
79414;SDS011;68864;44.972;19.612;2023-10-13T00:40:39;108.55;;;65.15;;
79414;SDS011;68864;44.972;19.612;2023-10-13T00:43:17;97.72;;;62.83;;
79414;SDS011;68864;44.972;19.612;2023-10-13T00:46:01;101.93;;;62.00;;
79414;SDS011;68864;44.972;19.612;2023-10-13T00:48:35;91.15;;;59.15;;
79414;SDS011;68864;44.972;19.612;2023-10-13T00:51:11;94.13;;;62.67;;
79414;SDS011;68864;44.972;19.612;2023-10-13T00:53:44;85.00;;;58.08;;
79414;SDS011;68864;44.972;19.612;2023-10-13T00:56:14;90.55;;;57.60;;
79414;SDS011;68864;44.972;19.612;2023-10-13T00:58:47;94.95;;;59.40;;
79414;SDS011;68864;44.972;19.612;2023-10-13T01:01:17;90.32;;;56.92;;
79414;SDS011;68864;44.972;19.612;2023-10-13T01:03:43;89.38;;;56.25;;
79414;SDS011;68864;44.972;19.612;2023-10-13T01:06:13;84.32;;;55.47;;
79414;SDS011;68864;44.972;19.612;2023-10-13T01:08:42;82.70;;;57.08;;
79414;SDS011;68864;44.972;19.612;2023-10-13T01:11:09;82.30;;;54.33;;
79414;SDS011;68864;44.972;19.612;2023-10-13T01:13:37;78.40;;;54.22;;
79414;SDS011;68864;44.972;19.612;2023-10-13T01:16:06;81.03;;;51.75;;
79414;SDS011;68864;44.972;19.612;2023-10-13T01:18:32;75.80;;;50.15;;
79414;SDS011;68864;44.972;19.612;2023-10-13T01:21:05;69.95;;;41.53;;
79414;SDS011;68864;44.972;19.612;2023-10-13T01:23:32;59.95;;;37.22;;
79414;SDS011;68864;44.972;19.612;2023-10-13T01:26:03;61.35;;;38.72;;
79414;SDS011;68864;44.972;19.612;2023-10-13T01:28:30;55.63;;;34.65;;
79414;SDS011;68864;44.972;19.612;2023-10-13T01:31:09;55.47;;;36.00;;
79414;SDS011;68864;44.972;19.612;2023-10-13T01:33:37;46.95;;;31.10;;
79414;SDS011;68864;44.972;19.612;2023-10-13T01:36:04;47.90;;;30.85;;
79414;SDS011;68864;44.972;19.612;2023-10-13T01:38:36;49.13;;;30.45;;
79414;SDS011;68864;44.972;19.612;2023-10-13T01:41:04;48.15;;;29.00;;
79414;SDS011;68864;44.972;19.612;2023-10-13T01:43:31;45.70;;;28.63;;
79414;SDS011;68864;44.972;19.612;2023-10-13T01:45:58;46.58;;;28.55;;
79414;SDS011;68864;44.972;19.612;2023-10-13T01:48:24;42.83;;;28.05;;
79414;SDS011;68864;44.972;19.612;2023-10-13T01:50:50;45.97;;;24.73;;
79414;SDS011;68864;44.972;19.612;2023-10-13T01:53:20;43.47;;;23.23;;
79414;SDS011;68864;44.972;19.612;2023-10-13T01:55:49;36.17;;;22.83;;
79414;SDS011;68864;44.972;19.612;2023-10-13T01:58:15;36.17;;;22.67;;
79414;SDS011;68864;44.972;19.612;2023-10-13T02:00:47;34.92;;;19.67;;
79414;SDS011;68864;44.972;19.612;2023-10-13T02:03:14;30.95;;;18.17;;
79414;SDS011;68864;44.972;19.612;2023-10-13T02:05:41;31.75;;;15.52;;
79414;SDS011;68864;44.972;19.612;2023-10-13T02:08:12;27.42;;;13.80;;
79414;SDS011;68864;44.972;19.612;2023-10-13T02:10:48;22.52;;;11.20;;
79414;SDS011;68864;44.972;19.612;2023-10-13T02:13:15;21.02;;;10.13;;
79414;SDS011;68864;44.972;19.612;2023-10-13T02:15:43;21.30;;;9.68;;
79414;SDS011;68864;44.972;19.612;2023-10-13T02:18:10;22.10;;;10.30;;
79414;SDS011;68864;44.972;19.612;2023-10-13T02:20:45;19.33;;;9.15;;
79414;SDS011;68864;44.972;19.612;2023-10-13T02:23:19;20.60;;;10.93;;
79414;SDS011;68864;44.972;19.612;2023-10-13T02:25:46;18.95;;;10.35;;
79414;SDS011;68864;44.972;19.612;2023-10-13T02:28:13;17.55;;;8.75;;
79414;SDS011;68864;44.972;19.612;2023-10-13T02:33:13;23.42;;;10.02;;
79414;SDS011;68864;44.972;19.612;2023-10-13T02:35:46;16.65;;;10.05;;
79414;SDS011;68864;44.972;19.612;2023-10-13T02:38:18;21.70;;;9.63;;
79414;SDS011;68864;44.972;19.612;2023-10-13T02:40:59;17.17;;;9.23;;
79414;SDS011;68864;44.972;19.612;2023-10-13T02:43:33;18.80;;;8.80;;
79414;SDS011;68864;44.972;19.612;2023-10-13T02:46:00;22.85;;;10.23;;
79414;SDS011;68864;44.972;19.612;2023-10-13T02:48:27;17.33;;;8.77;;
79414;SDS011;68864;44.972;19.612;2023-10-13T02:50:57;20.55;;;9.18;;
79414;SDS011;68864;44.972;19.612;2023-10-13T02:53:26;20.40;;;9.77;;
79414;SDS011;68864;44.972;19.612;2023-10-13T02:55:55;21.52;;;9.35;;
79414;SDS011;68864;44.972;19.612;2023-10-13T02:58:23;17.95;;;8.65;;
79414;SDS011;68864;44.972;19.612;2023-10-13T03:01:05;15.80;;;7.95;;
79414;SDS011;68864;44.972;19.612;2023-10-13T03:03:42;19.98;;;9.63;;
79414;SDS011;68864;44.972;19.612;2023-10-13T03:06:12;17.35;;;8.70;;
79414;SDS011;68864;44.972;19.612;2023-10-13T03:08:39;17.52;;;8.57;;
79414;SDS011;68864;44.972;19.612;2023-10-13T03:11:08;18.75;;;9.63;;
79414;SDS011;68864;44.972;19.612;2023-10-13T03:13:35;21.08;;;8.38;;
79414;SDS011;68864;44.972;19.612;2023-10-13T03:16:10;14.27;;;8.40;;
79414;SDS011;68864;44.972;19.612;2023-10-13T03:18:37;20.42;;;8.18;;
79414;SDS011;68864;44.972;19.612;2023-10-13T03:21:04;15.40;;;7.57;;
79414;SDS011;68864;44.972;19.612;2023-10-13T03:23:32;19.58;;;9.48;;
79414;SDS011;68864;44.972;19.612;2023-10-13T03:26:10;20.42;;;7.80;;
79414;SDS011;68864;44.972;19.612;2023-10-13T03:28:37;15.10;;;8.57;;
79414;SDS011;68864;44.972;19.612;2023-10-13T03:31:03;18.05;;;8.05;;
79414;SDS011;68864;44.972;19.612;2023-10-13T03:33:34;16.88;;;8.95;;
79414;SDS011;68864;44.972;19.612;2023-10-13T03:36:03;16.92;;;8.00;;
79414;SDS011;68864;44.972;19.612;2023-10-13T03:38:31;18.73;;;8.27;;
79414;SDS011;68864;44.972;19.612;2023-10-13T03:41:01;17.15;;;8.65;;
79414;SDS011;68864;44.972;19.612;2023-10-13T03:43:37;17.00;;;8.05;;
79414;SDS011;68864;44.972;19.612;2023-10-13T03:46:15;19.70;;;8.57;;
79414;SDS011;68864;44.972;19.612;2023-10-13T03:48:48;20.60;;;9.60;;
79414;SDS011;68864;44.972;19.612;2023-10-13T03:51:26;18.20;;;8.73;;
79414;SDS011;68864;44.972;19.612;2023-10-13T03:53:57;17.83;;;8.48;;
79414;SDS011;68864;44.972;19.612;2023-10-13T03:56:24;16.38;;;9.73;;
79414;SDS011;68864;44.972;19.612;2023-10-13T03:59:04;17.17;;;8.75;;
79414;SDS011;68864;44.972;19.612;2023-10-13T04:01:34;16.05;;;8.82;;
79414;SDS011;68864;44.972;19.612;2023-10-13T04:04:12;18.15;;;7.28;;
79414;SDS011;68864;44.972;19.612;2023-10-13T04:06:40;17.42;;;8.93;;
79414;SDS011;68864;44.972;19.612;2023-10-13T04:09:38;21.00;;;9.25;;
79414;SDS011;68864;44.972;19.612;2023-10-13T04:12:35;16.30;;;8.07;;
79414;SDS011;68864;44.972;19.612;2023-10-13T04:15:20;14.30;;;8.90;;
79414;SDS011;68864;44.972;19.612;2023-10-13T04:17:52;16.95;;;8.18;;
79414;SDS011;68864;44.972;19.612;2023-10-13T04:20:20;17.63;;;9.18;;
79414;SDS011;68864;44.972;19.612;2023-10-13T04:23:01;17.92;;;9.45;;
79414;SDS011;68864;44.972;19.612;2023-10-13T04:25:51;20.73;;;9.02;;
79414;SDS011;68864;44.972;19.612;2023-10-13T04:28:30;22.02;;;11.45;;
79414;SDS011;68864;44.972;19.612;2023-10-13T04:31:11;19.23;;;9.27;;
79414;SDS011;68864;44.972;19.612;2023-10-13T04:33:50;18.27;;;8.10;;
79414;SDS011;68864;44.972;19.612;2023-10-13T04:36:28;21.55;;;11.43;;
79414;SDS011;68864;44.972;19.612;2023-10-13T04:39:10;23.98;;;10.85;;
79414;SDS011;68864;44.972;19.612;2023-10-13T04:41:54;22.20;;;11.85;;
79414;SDS011;68864;44.972;19.612;2023-10-13T04:44:36;25.05;;;12.75;;
79414;SDS011;68864;44.972;19.612;2023-10-13T04:47:13;23.70;;;13.43;;
79414;SDS011;68864;44.972;19.612;2023-10-13T04:49:47;25.25;;;13.02;;
79414;SDS011;68864;44.972;19.612;2023-10-13T04:52:19;23.88;;;14.75;;
79414;SDS011;68864;44.972;19.612;2023-10-13T04:55:04;30.05;;;15.95;;
79414;SDS011;68864;44.972;19.612;2023-10-13T04:57:50;31.90;;;17.45;;
79414;SDS011;68864;44.972;19.612;2023-10-13T05:00:25;28.63;;;17.35;;
79414;SDS011;68864;44.972;19.612;2023-10-13T05:03:09;35.08;;;19.27;;
79414;SDS011;68864;44.972;19.612;2023-10-13T05:05:55;37.65;;;19.27;;
79414;SDS011;68864;44.972;19.612;2023-10-13T05:08:58;35.15;;;19.05;;
79414;SDS011;68864;44.972;19.612;2023-10-13T05:11:43;31.02;;;18.15;;
79414;SDS011;68864;44.972;19.612;2023-10-13T05:14:26;38.45;;;19.08;;
79414;SDS011;68864;44.972;19.612;2023-10-13T05:17:11;42.08;;;18.90;;
79414;SDS011;68864;44.972;19.612;2023-10-13T05:19:55;34.47;;;18.15;;
79414;SDS011;68864;44.972;19.612;2023-10-13T05:22:40;27.33;;;17.77;;
79414;SDS011;68864;44.972;19.612;2023-10-13T05:25:35;32.60;;;19.10;;
79414;SDS011;68864;44.972;19.612;2023-10-13T05:28:20;35.35;;;20.75;;
79414;SDS011;68864;44.972;19.612;2023-10-13T05:31:04;35.78;;;18.45;;
79414;SDS011;68864;44.972;19.612;2023-10-13T05:33:47;39.20;;;17.30;;
79414;SDS011;68864;44.972;19.612;2023-10-13T05:36:32;42.92;;;22.90;;
79414;SDS011;68864;44.972;19.612;2023-10-13T05:39:16;42.17;;;18.85;;
79414;SDS011;68864;44.972;19.612;2023-10-13T05:42:02;30.38;;;15.98;;
79414;SDS011;68864;44.972;19.612;2023-10-13T05:44:47;32.85;;;17.20;;
79414;SDS011;68864;44.972;19.612;2023-10-13T05:47:22;33.22;;;18.25;;
79414;SDS011;68864;44.972;19.612;2023-10-13T05:50:06;36.78;;;21.42;;
79414;SDS011;68864;44.972;19.612;2023-10-13T05:52:54;44.42;;;22.83;;
79414;SDS011;68864;44.972;19.612;2023-10-13T05:55:38;32.67;;;22.75;;
79414;SDS011;68864;44.972;19.612;2023-10-13T05:58:24;45.35;;;27.30;;
79414;SDS011;68864;44.972;19.612;2023-10-13T06:01:11;52.90;;;30.27;;
79414;SDS011;68864;44.972;19.612;2023-10-13T06:03:56;79.07;;;43.35;;
79414;SDS011;68864;44.972;19.612;2023-10-13T06:06:40;39.03;;;24.30;;
79414;SDS011;68864;44.972;19.612;2023-10-13T06:09:24;32.10;;;20.65;;
79414;SDS011;68864;44.972;19.612;2023-10-13T06:12:08;34.88;;;20.77;;
79414;SDS011;68864;44.972;19.612;2023-10-13T06:14:56;34.55;;;17.67;;
79414;SDS011;68864;44.972;19.612;2023-10-13T06:17:40;25.63;;;15.52;;
79414;SDS011;68864;44.972;19.612;2023-10-13T06:20:24;27.17;;;15.18;;
79414;SDS011;68864;44.972;19.612;2023-10-13T06:23:08;31.00;;;15.40;;
79414;SDS011;68864;44.972;19.612;2023-10-13T06:25:52;35.58;;;15.65;;
79414;SDS011;68864;44.972;19.612;2023-10-13T06:28:37;33.33;;;17.05;;
79414;SDS011;68864;44.972;19.612;2023-10-13T06:31:08;33.97;;;14.73;;
79414;SDS011;68864;44.972;19.612;2023-10-13T06:33:40;22.33;;;10.93;;
79414;SDS011;68864;44.972;19.612;2023-10-13T06:36:10;32.70;;;10.88;;
79414;SDS011;68864;44.972;19.612;2023-10-13T06:38:37;25.35;;;9.90;;
79414;SDS011;68864;44.972;19.612;2023-10-13T06:41:04;24.67;;;7.93;;
79414;SDS011;68864;44.972;19.612;2023-10-13T06:43:31;32.70;;;10.23;;
79414;SDS011;68864;44.972;19.612;2023-10-13T06:46:04;21.92;;;7.95;;
79414;SDS011;68864;44.972;19.612;2023-10-13T06:48:33;21.35;;;8.20;;
79414;SDS011;68864;44.972;19.612;2023-10-13T06:51:00;21.15;;;9.65;;
79414;SDS011;68864;44.972;19.612;2023-10-13T06:53:39;68.97;;;32.00;;
79414;SDS011;68864;44.972;19.612;2023-10-13T06:56:11;25.10;;;10.55;;
79414;SDS011;68864;44.972;19.612;2023-10-13T06:58:43;17.25;;;6.70;;
79414;SDS011;68864;44.972;19.612;2023-10-13T07:01:12;20.00;;;7.13;;
79414;SDS011;68864;44.972;19.612;2023-10-13T07:03:42;15.82;;;6.53;;
79414;SDS011;68864;44.972;19.612;2023-10-13T07:06:09;16.45;;;7.70;;
79414;SDS011;68864;44.972;19.612;2023-10-13T07:08:43;15.73;;;6.60;;
79414;SDS011;68864;44.972;19.612;2023-10-13T07:11:17;17.85;;;5.15;;
79414;SDS011;68864;44.972;19.612;2023-10-13T07:13:48;15.55;;;5.63;;
79414;SDS011;68864;44.972;19.612;2023-10-13T07:16:18;15.02;;;5.75;;
79414;SDS011;68864;44.972;19.612;2023-10-13T07:18:46;13.43;;;5.05;;
79414;SDS011;68864;44.972;19.612;2023-10-13T07:21:18;15.75;;;5.68;;
79414;SDS011;68864;44.972;19.612;2023-10-13T07:23:49;18.98;;;5.80;;
79414;SDS011;68864;44.972;19.612;2023-10-13T07:26:26;12.25;;;5.40;;
79414;SDS011;68864;44.972;19.612;2023-10-13T07:28:53;13.73;;;4.60;;
79414;SDS011;68864;44.972;19.612;2023-10-13T07:31:20;13.32;;;4.60;;
79414;SDS011;68864;44.972;19.612;2023-10-13T07:33:53;19.88;;;8.20;;
79414;SDS011;68864;44.972;19.612;2023-10-13T07:36:28;19.88;;;10.30;;
79414;SDS011;68864;44.972;19.612;2023-10-13T07:38:58;17.08;;;8.65;;
79414;SDS011;68864;44.972;19.612;2023-10-13T07:41:45;11.93;;;6.25;;
79414;SDS011;68864;44.972;19.612;2023-10-13T07:44:17;12.93;;;5.32;;
79414;SDS011;68864;44.972;19.612;2023-10-13T07:46:50;17.98;;;6.78;;
79414;SDS011;68864;44.972;19.612;2023-10-13T07:49:30;15.63;;;6.72;;
79414;SDS011;68864;44.972;19.612;2023-10-13T07:52:01;14.27;;;5.43;;
79414;SDS011;68864;44.972;19.612;2023-10-13T07:54:43;22.25;;;6.85;;
79414;SDS011;68864;44.972;19.612;2023-10-13T07:59:40;15.27;;;6.38;;
79414;SDS011;68864;44.972;19.612;2023-10-13T08:02:13;14.43;;;6.63;;
79414;SDS011;68864;44.972;19.612;2023-10-13T08:05:00;16.30;;;6.95;;
79414;SDS011;68864;44.972;19.612;2023-10-13T08:07:29;12.80;;;6.78;;
79414;SDS011;68864;44.972;19.612;2023-10-13T08:09:56;15.85;;;7.85;;
79414;SDS011;68864;44.972;19.612;2023-10-13T08:12:24;15.93;;;6.50;;
79414;SDS011;68864;44.972;19.612;2023-10-13T08:14:52;15.80;;;6.72;;
79414;SDS011;68864;44.972;19.612;2023-10-13T08:17:36;12.73;;;5.55;;
79414;SDS011;68864;44.972;19.612;2023-10-13T08:20:11;13.23;;;5.28;;
79414;SDS011;68864;44.972;19.612;2023-10-13T08:22:38;12.80;;;5.82;;
79414;SDS011;68864;44.972;19.612;2023-10-13T08:25:12;12.60;;;6.95;;
79414;SDS011;68864;44.972;19.612;2023-10-13T08:27:45;15.90;;;5.63;;
79414;SDS011;68864;44.972;19.612;2023-10-13T08:30:30;13.73;;;6.57;;
79414;SDS011;68864;44.972;19.612;2023-10-13T08:33:07;12.05;;;5.22;;
79414;SDS011;68864;44.972;19.612;2023-10-13T08:35:44;20.52;;;7.15;;
79414;SDS011;68864;44.972;19.612;2023-10-13T08:38:31;16.33;;;6.93;;
79414;SDS011;68864;44.972;19.612;2023-10-13T08:43:54;17.73;;;8.15;;
79414;SDS011;68864;44.972;19.612;2023-10-13T08:46:30;24.00;;;15.38;;
79414;SDS011;68864;44.972;19.612;2023-10-13T08:49:16;18.40;;;8.88;;
79414;SDS011;68864;44.972;19.612;2023-10-13T08:51:49;15.25;;;6.18;;
79414;SDS011;68864;44.972;19.612;2023-10-13T08:54:30;14.57;;;6.18;;
79414;SDS011;68864;44.972;19.612;2023-10-13T08:57:11;18.45;;;7.40;;
79414;SDS011;68864;44.972;19.612;2023-10-13T08:59:58;14.23;;;6.57;;
79414;SDS011;68864;44.972;19.612;2023-10-13T09:02:44;12.50;;;6.07;;
79414;SDS011;68864;44.972;19.612;2023-10-13T09:05:46;18.48;;;6.07;;
79414;SDS011;68864;44.972;19.612;2023-10-13T09:08:27;11.30;;;4.47;;
79414;SDS011;68864;44.972;19.612;2023-10-13T09:11:10;14.43;;;4.72;;
79414;SDS011;68864;44.972;19.612;2023-10-13T09:13:39;12.98;;;4.65;;
79414;SDS011;68864;44.972;19.612;2023-10-13T09:16:14;23.88;;;6.43;;
79414;SDS011;68864;44.972;19.612;2023-10-13T09:19:07;14.90;;;5.50;;
79414;SDS011;68864;44.972;19.612;2023-10-13T09:21:39;12.85;;;3.95;;
79414;SDS011;68864;44.972;19.612;2023-10-13T09:24:21;13.80;;;4.75;;
79414;SDS011;68864;44.972;19.612;2023-10-13T09:26:47;14.40;;;5.00;;
79414;SDS011;68864;44.972;19.612;2023-10-13T09:29:18;15.85;;;4.35;;
79414;SDS011;68864;44.972;19.612;2023-10-13T09:31:46;11.40;;;4.35;;
79414;SDS011;68864;44.972;19.612;2023-10-13T09:34:22;17.70;;;5.28;;
79414;SDS011;68864;44.972;19.612;2023-10-13T09:36:49;10.30;;;4.13;;
79414;SDS011;68864;44.972;19.612;2023-10-13T09:39:24;9.38;;;3.33;;
79414;SDS011;68864;44.972;19.612;2023-10-13T09:41:55;22.33;;;4.00;;
79414;SDS011;68864;44.972;19.612;2023-10-13T09:44:24;15.05;;;4.20;;
79414;SDS011;68864;44.972;19.612;2023-10-13T09:46:55;11.10;;;4.70;;
79414;SDS011;68864;44.972;19.612;2023-10-13T09:49:33;14.77;;;4.50;;
79414;SDS011;68864;44.972;19.612;2023-10-13T09:52:13;10.90;;;4.53;;
79414;SDS011;68864;44.972;19.612;2023-10-13T09:54:46;10.75;;;3.28;;
79414;SDS011;68864;44.972;19.612;2023-10-13T09:57:26;13.63;;;3.95;;
79414;SDS011;68864;44.972;19.612;2023-10-13T10:00:00;18.98;;;3.80;;
79414;SDS011;68864;44.972;19.612;2023-10-13T10:02:40;9.88;;;3.92;;
79414;SDS011;68864;44.972;19.612;2023-10-13T10:05:09;20.05;;;7.25;;
79414;SDS011;68864;44.972;19.612;2023-10-13T10:07:53;32.17;;;17.58;;
79414;SDS011;68864;44.972;19.612;2023-10-13T10:10:22;17.80;;;8.55;;
79414;SDS011;68864;44.972;19.612;2023-10-13T10:12:52;15.30;;;6.18;;
79414;SDS011;68864;44.972;19.612;2023-10-13T10:15:26;16.40;;;5.88;;
79414;SDS011;68864;44.972;19.612;2023-10-13T10:17:59;14.65;;;5.00;;
79414;SDS011;68864;44.972;19.612;2023-10-13T10:20:29;12.40;;;5.03;;
79414;SDS011;68864;44.972;19.612;2023-10-13T10:23:05;12.27;;;4.88;;
79414;SDS011;68864;44.972;19.612;2023-10-13T10:25:36;11.98;;;3.97;;
79414;SDS011;68864;44.972;19.612;2023-10-13T10:28:04;18.38;;;4.95;;
79414;SDS011;68864;44.972;19.612;2023-10-13T10:30:32;15.00;;;4.50;;
79414;SDS011;68864;44.972;19.612;2023-10-13T10:33:00;14.13;;;5.57;;
79414;SDS011;68864;44.972;19.612;2023-10-13T10:35:33;14.35;;;4.95;;
79414;SDS011;68864;44.972;19.612;2023-10-13T10:38:07;16.65;;;6.93;;
79414;SDS011;68864;44.972;19.612;2023-10-13T10:40:51;12.95;;;5.70;;
79414;SDS011;68864;44.972;19.612;2023-10-13T10:43:23;20.73;;;13.13;;
79414;SDS011;68864;44.972;19.612;2023-10-13T10:45:54;20.08;;;5.63;;
79414;SDS011;68864;44.972;19.612;2023-10-13T10:48:25;13.05;;;4.07;;
79414;SDS011;68864;44.972;19.612;2023-10-13T10:50:56;15.20;;;5.78;;
79414;SDS011;68864;44.972;19.612;2023-10-13T10:53:24;17.75;;;5.13;;
79414;SDS011;68864;44.972;19.612;2023-10-13T10:56:05;12.20;;;4.35;;
79414;SDS011;68864;44.972;19.612;2023-10-13T10:58:34;9.75;;;3.88;;
79414;SDS011;68864;44.972;19.612;2023-10-13T11:01:09;11.82;;;4.55;;
79414;SDS011;68864;44.972;19.612;2023-10-13T11:03:37;14.05;;;5.15;;
79414;SDS011;68864;44.972;19.612;2023-10-13T11:06:07;17.65;;;5.07;;
79414;SDS011;68864;44.972;19.612;2023-10-13T11:08:42;13.30;;;4.80;;
79414;SDS011;68864;44.972;19.612;2023-10-13T11:11:18;11.70;;;4.30;;
79414;SDS011;68864;44.972;19.612;2023-10-13T11:16:44;19.08;;;4.88;;
79414;SDS011;68864;44.972;19.612;2023-10-13T11:19:15;14.30;;;3.00;;
79414;SDS011;68864;44.972;19.612;2023-10-13T11:21:45;10.18;;;3.42;;
79414;SDS011;68864;44.972;19.612;2023-10-13T11:24:12;13.10;;;3.95;;
79414;SDS011;68864;44.972;19.612;2023-10-13T11:26:41;10.93;;;4.82;;
79414;SDS011;68864;44.972;19.612;2023-10-13T11:29:14;10.55;;;3.85;;
79414;SDS011;68864;44.972;19.612;2023-10-13T11:31:44;18.33;;;4.05;;
79414;SDS011;68864;44.972;19.612;2023-10-13T11:34:11;14.35;;;5.55;;
79414;SDS011;68864;44.972;19.612;2023-10-13T11:36:41;13.30;;;4.03;;
79414;SDS011;68864;44.972;19.612;2023-10-13T11:39:08;11.63;;;4.13;;
79414;SDS011;68864;44.972;19.612;2023-10-13T11:41:45;15.07;;;4.85;;
79414;SDS011;68864;44.972;19.612;2023-10-13T11:44:19;12.48;;;3.85;;
79414;SDS011;68864;44.972;19.612;2023-10-13T11:46:57;13.77;;;5.68;;
79414;SDS011;68864;44.972;19.612;2023-10-13T11:49:41;17.48;;;6.90;;
79414;SDS011;68864;44.972;19.612;2023-10-13T11:52:08;18.55;;;6.63;;
79414;SDS011;68864;44.972;19.612;2023-10-13T11:54:44;16.92;;;6.72;;
79414;SDS011;68864;44.972;19.612;2023-10-13T11:57:13;17.40;;;6.80;;
79414;SDS011;68864;44.972;19.612;2023-10-13T11:59:44;16.23;;;5.60;;
79414;SDS011;68864;44.972;19.612;2023-10-13T12:02:18;20.15;;;6.55;;
79414;SDS011;68864;44.972;19.612;2023-10-13T12:05:03;13.70;;;8.48;;
79414;SDS011;68864;44.972;19.612;2023-10-13T12:07:37;15.45;;;6.43;;
79414;SDS011;68864;44.972;19.612;2023-10-13T12:10:10;12.90;;;6.28;;
79414;SDS011;68864;44.972;19.612;2023-10-13T12:12:53;14.93;;;4.53;;
79414;SDS011;68864;44.972;19.612;2023-10-13T12:15:19;14.00;;;5.68;;
79414;SDS011;68864;44.972;19.612;2023-10-13T12:18:01;15.48;;;5.25;;
79414;SDS011;68864;44.972;19.612;2023-10-13T12:20:29;16.17;;;5.50;;
79414;SDS011;68864;44.972;19.612;2023-10-13T12:23:00;14.38;;;5.72;;
79414;SDS011;68864;44.972;19.612;2023-10-13T12:25:36;14.70;;;4.80;;
79414;SDS011;68864;44.972;19.612;2023-10-13T12:28:19;14.43;;;4.68;;
79414;SDS011;68864;44.972;19.612;2023-10-13T12:30:48;12.63;;;4.70;;
79414;SDS011;68864;44.972;19.612;2023-10-13T12:33:17;14.32;;;5.38;;
79414;SDS011;68864;44.972;19.612;2023-10-13T12:35:50;12.85;;;4.47;;
79414;SDS011;68864;44.972;19.612;2023-10-13T12:38:32;13.35;;;5.07;;
79414;SDS011;68864;44.972;19.612;2023-10-13T12:41:37;15.68;;;5.10;;
79414;SDS011;68864;44.972;19.612;2023-10-13T12:44:24;16.98;;;4.30;;
79414;SDS011;68864;44.972;19.612;2023-10-13T12:47:08;15.18;;;5.18;;
79414;SDS011;68864;44.972;19.612;2023-10-13T12:49:52;12.32;;;5.15;;
79414;SDS011;68864;44.972;19.612;2023-10-13T12:52:24;14.27;;;4.43;;
79414;SDS011;68864;44.972;19.612;2023-10-13T12:54:52;12.48;;;4.40;;
79414;SDS011;68864;44.972;19.612;2023-10-13T12:57:33;17.92;;;4.90;;
79414;SDS011;68864;44.972;19.612;2023-10-13T13:00:08;12.43;;;4.70;;
79414;SDS011;68864;44.972;19.612;2023-10-13T13:02:46;17.70;;;5.80;;
79414;SDS011;68864;44.972;19.612;2023-10-13T13:05:15;14.05;;;4.25;;
79414;SDS011;68864;44.972;19.612;2023-10-13T13:07:47;13.88;;;4.85;;
79414;SDS011;68864;44.972;19.612;2023-10-13T13:10:17;10.50;;;4.13;;
79414;SDS011;68864;44.972;19.612;2023-10-13T13:12:45;12.40;;;5.38;;
79414;SDS011;68864;44.972;19.612;2023-10-13T13:15:14;10.95;;;4.22;;
79414;SDS011;68864;44.972;19.612;2023-10-13T13:17:40;12.35;;;4.53;;
79414;SDS011;68864;44.972;19.612;2023-10-13T13:20:08;13.07;;;4.80;;
79414;SDS011;68864;44.972;19.612;2023-10-13T13:22:51;10.60;;;3.97;;
79414;SDS011;68864;44.972;19.612;2023-10-13T13:25:19;12.20;;;4.53;;
79414;SDS011;68864;44.972;19.612;2023-10-13T13:27:55;14.90;;;4.80;;
79414;SDS011;68864;44.972;19.612;2023-10-13T13:30:23;12.95;;;4.90;;
79414;SDS011;68864;44.972;19.612;2023-10-13T13:32:55;13.27;;;4.43;;
79414;SDS011;68864;44.972;19.612;2023-10-13T13:35:23;11.20;;;3.47;;
79414;SDS011;68864;44.972;19.612;2023-10-13T13:37:58;10.75;;;4.40;;
79414;SDS011;68864;44.972;19.612;2023-10-13T13:40:31;10.95;;;4.05;;
79414;SDS011;68864;44.972;19.612;2023-10-13T13:43:00;14.88;;;5.45;;
79414;SDS011;68864;44.972;19.612;2023-10-13T13:45:28;13.73;;;4.35;;
79414;SDS011;68864;44.972;19.612;2023-10-13T13:47:54;14.27;;;3.97;;
79414;SDS011;68864;44.972;19.612;2023-10-13T13:50:21;10.52;;;3.30;;
79414;SDS011;68864;44.972;19.612;2023-10-13T13:52:52;9.07;;;3.70;;
79414;SDS011;68864;44.972;19.612;2023-10-13T13:55:21;9.13;;;3.45;;
79414;SDS011;68864;44.972;19.612;2023-10-13T13:57:48;14.45;;;4.18;;
79414;SDS011;68864;44.972;19.612;2023-10-13T14:00:15;11.98;;;3.40;;
79414;SDS011;68864;44.972;19.612;2023-10-13T14:02:49;9.05;;;3.20;;
79414;SDS011;68864;44.972;19.612;2023-10-13T14:05:17;13.50;;;5.38;;
79414;SDS011;68864;44.972;19.612;2023-10-13T14:07:43;10.90;;;3.50;;
79414;SDS011;68864;44.972;19.612;2023-10-13T14:10:15;11.55;;;5.68;;
79414;SDS011;68864;44.972;19.612;2023-10-13T14:12:56;16.50;;;6.22;;
79414;SDS011;68864;44.972;19.612;2023-10-13T14:15:32;13.27;;;6.80;;
79414;SDS011;68864;44.972;19.612;2023-10-13T14:18:06;14.55;;;5.40;;
79414;SDS011;68864;44.972;19.612;2023-10-13T14:20:38;11.05;;;6.18;;
79414;SDS011;68864;44.972;19.612;2023-10-13T14:23:06;15.60;;;4.75;;
79414;SDS011;68864;44.972;19.612;2023-10-13T14:25:36;15.55;;;5.55;;
79414;SDS011;68864;44.972;19.612;2023-10-13T14:28:04;12.45;;;5.32;;
79414;SDS011;68864;44.972;19.612;2023-10-13T14:30:32;14.00;;;5.30;;
79414;SDS011;68864;44.972;19.612;2023-10-13T14:32:58;10.30;;;5.18;;
79414;SDS011;68864;44.972;19.612;2023-10-13T14:35:27;14.55;;;5.72;;
79414;SDS011;68864;44.972;19.612;2023-10-13T14:37:54;13.30;;;5.72;;
79414;SDS011;68864;44.972;19.612;2023-10-13T14:42:47;26.13;;;6.25;;
79414;SDS011;68864;44.972;19.612;2023-10-13T14:45:14;14.30;;;5.78;;
79414;SDS011;68864;44.972;19.612;2023-10-13T14:47:42;17.52;;;5.38;;
79414;SDS011;68864;44.972;19.612;2023-10-13T14:50:09;14.80;;;5.72;;
79414;SDS011;68864;44.972;19.612;2023-10-13T14:52:46;13.65;;;5.30;;
79414;SDS011;68864;44.972;19.612;2023-10-13T14:55:13;17.08;;;6.60;;
79414;SDS011;68864;44.972;19.612;2023-10-13T14:57:45;15.52;;;8.20;;
79414;SDS011;68864;44.972;19.612;2023-10-13T15:00:15;23.88;;;6.70;;
79414;SDS011;68864;44.972;19.612;2023-10-13T15:02:50;16.50;;;6.68;;
79414;SDS011;68864;44.972;19.612;2023-10-13T15:05:18;14.73;;;6.22;;
79414;SDS011;68864;44.972;19.612;2023-10-13T15:07:46;18.65;;;6.90;;
79414;SDS011;68864;44.972;19.612;2023-10-13T15:10:13;21.60;;;8.30;;